Time;durP1;ratioP1;P1;durP2;ratioP2;P2;SDS_P1;SDS_P2;PMS_P1;PMS_P2;Temp;Humidity;BMP_temperature;BMP_pressure;BME280_temperature;BME280_humidity;BME280_pressure;Samples;Min_cycle;Max_cycle;Signal;HPM_P1;HPM_P2
2022/09/07 00:02:14;;;;;;;1.52;0.82;;;20.80;99.90;;;21.25;100.00;100865.41;5164675;28;20074;-67
2022/09/07 00:04:47;;;;;;;1.58;0.70;;;20.80;99.90;;;21.23;100.00;100859.25;5163089;28;20061;-67
2022/09/07 00:07:19;;;;;;;0.85;0.73;;;20.70;99.90;;;21.21;100.00;100842.50;5163913;28;20105;-67
2022/09/07 00:09:52;;;;;;;2.92;1.08;;;20.70;99.90;;;21.16;100.00;100825.75;5164390;28;20039;-68
2022/09/07 00:12:24;;;;;;;2.05;0.70;;;20.70;99.90;;;21.13;100.00;100805.44;5164357;28;20503;-67
2022/09/07 00:14:56;;;;;;;1.65;0.90;;;20.70;99.90;;;21.09;100.00;100808.13;5164241;28;20125;-67
2022/09/07 00:17:28;;;;;;;2.75;1.25;;;20.60;99.90;;;21.08;100.00;100811.69;5163702;28;20139;-67
2022/09/07 00:20:04;;;;;;;1.30;1.10;;;20.60;99.90;;;21.11;100.00;100811.63;5163992;28;20069;-67
2022/09/07 00:22:37;;;;;;;0.95;0.80;;;20.60;99.90;;;21.13;100.00;100807.22;5164194;28;20140;-67
2022/09/07 00:25:09;;;;;;;1.05;0.80;;;20.60;99.90;;;21.12;100.00;100813.38;5164235;28;20128;-68
2022/09/07 00:27:42;;;;;;;1.38;0.80;;;20.60;99.90;;;21.12;100.00;100800.13;5163459;28;20046;-68
2022/09/07 00:30:14;;;;;;;1.60;0.98;;;20.60;99.90;;;21.14;100.00;100799.25;5164166;28;20174;-67
2022/09/07 00:32:46;;;;;;;1.90;0.90;;;20.60;99.90;;;21.15;100.00;100797.47;5164126;28;20050;-67
2022/09/07 00:35:20;;;;;;;1.83;1.10;;;20.60;99.90;;;21.17;100.00;100792.16;5163867;28;20522;-68
2022/09/07 00:37:54;;;;;;;2.85;1.20;;;20.60;99.90;;;21.17;100.00;100789.50;5162181;28;20104;-69
2022/09/07 00:40:26;;;;;;;3.22;1.27;;;20.60;99.90;;;21.09;100.00;100776.31;5163533;28;20202;-68
2022/09/07 00:42:58;;;;;;;2.58;1.40;;;20.60;99.90;;;20.96;100.00;100761.41;5163726;28;20047;-69
2022/09/07 00:45:31;;;;;;;2.78;1.63;;;20.60;99.90;;;20.86;100.00;100777.41;5163811;28;20081;-68
2022/09/07 00:48:09;;;;;;;4.93;2.00;;;20.60;99.90;;;20.86;100.00;100755.31;5163521;28;20681;-68
2022/09/07 00:50:47;;;;;;;2.97;1.90;;;20.50;99.90;;;20.82;100.00;100759.75;5163416;28;20042;-67
2022/09/07 00:53:24;;;;;;;4.85;1.92;;;20.50;99.90;;;20.78;100.00;100765.97;5163966;28;20109;-68
2022/09/07 00:55:58;;;;;;;3.55;1.48;;;20.40;99.90;;;20.77;100.00;100765.97;5162959;28;20062;-68
2022/09/07 00:58:31;;;;;;;2.03;1.38;;;20.40;99.90;;;20.75;100.00;100765.13;5163438;28;20561;-68
2022/09/07 01:01:04;;;;;;;2.92;1.08;;;20.40;99.90;;;20.78;100.00;100751.84;5163321;28;20129;-68
2022/09/07 01:03:43;;;;;;;1.40;1.05;;;20.30;99.90;;;20.80;100.00;100740.38;5163640;28;20042;-68
2022/09/07 01:06:20;;;;;;;1.67;0.73;;;20.40;99.90;;;20.81;100.00;100742.13;5162918;28;20393;-69
2022/09/07 01:08:53;;;;;;;3.53;1.23;;;20.40;99.90;;;20.80;100.00;100724.47;5163766;28;20114;-68
2022/09/07 01:11:25;;;;;;;1.77;0.90;;;20.40;99.90;;;20.74;100.00;100707.75;5163503;28;20522;-67
2022/09/07 01:13:57;;;;;;;2.45;0.85;;;20.40;99.90;;;20.69;100.00;100702.47;5163372;28;20124;-69
2022/09/07 01:16:51;;;;;;;2.20;1.20;;;20.30;99.90;;;20.67;100.00;100709.56;5162703;28;20089;-67
2022/09/07 01:20:09;;;;;;;1.85;0.85;;;20.30;99.90;;;20.70;100.00;100691.00;5163578;28;20089;-69
2022/09/07 01:23:08;;;;;;;0.70;0.70;;;20.30;99.90;;;20.63;100.00;100691.94;5161827;28;20109;-68
2022/09/07 01:25:48;;;;;;;1.63;0.98;;;20.30;99.90;;;20.58;100.00;100685.78;5162020;28;20042;-68
2022/09/07 01:28:24;;;;;;;2.88;1.15;;;20.20;99.90;;;20.49;100.00;100678.81;5163582;28;20124;-71
2022/09/07 01:31:01;;;;;;;3.15;1.17;;;20.20;99.90;;;20.44;100.00;100669.09;5163174;28;20074;-68
2022/09/07 01:33:48;;;;;;;1.02;0.73;;;20.10;99.90;;;20.44;100.00;100679.69;5163495;28;20046;-67
2022/09/07 01:36:34;;;;;;;1.92;0.65;;;20.10;99.90;;;20.42;100.00;100685.00;5162757;28;20064;-68
2022/09/07 01:39:07;;;;;;;2.10;0.70;;;20.10;99.90;;;20.45;100.00;100689.41;5163289;28;20432;-69
2022/09/07 01:41:47;;;;;;;0.85;0.52;;;20.10;99.90;;;20.46;100.00;100684.09;5163240;28;20068;-68
2022/09/07 01:44:25;;;;;;;1.58;0.70;;;20.10;99.90;;;20.49;100.00;100680.56;5163342;28;20054;-68
2022/09/07 01:47:02;;;;;;;1.27;0.60;;;20.10;99.90;;;20.49;100.00;100683.22;5162736;28;20069;-68
2022/09/07 01:49:40;;;;;;;0.82;0.52;;;20.10;99.90;;;20.53;100.00;100677.00;5163426;28;20046;-68
2022/09/07 01:52:17;;;;;;;1.27;0.60;;;20.10;99.90;;;20.59;100.00;100687.53;5161856;28;20141;-68
2022/09/07 01:54:55;;;;;;;1.75;0.65;;;20.20;99.90;;;20.63;100.00;100676.03;5163080;28;20559;-68
2022/09/07 01:57:34;;;;;;;1.70;0.65;;;20.20;99.90;;;20.67;100.00;100671.56;5162739;28;20097;-68
2022/09/07 02:00:11;;;;;;;2.20;0.70;;;20.20;99.90;;;20.65;100.00;100673.38;5161783;28;20054;-68
2022/09/07 02:02:51;;;;;;;0.70;0.52;;;20.20;99.90;;;20.66;100.00;100664.53;5161622;28;20450;-67
2022/09/07 02:05:30;;;;;;;1.00;0.70;;;20.20;99.90;;;20.66;100.00;100659.22;5162833;28;20074;-68
2022/09/07 02:08:09;;;;;;;1.02;0.50;;;20.20;99.90;;;20.63;100.00;100659.28;5162687;28;20557;-69
2022/09/07 02:10:49;;;;;;;0.68;0.57;;;20.20;99.90;;;20.59;100.00;100667.22;5166535;28;20046;-68
2022/09/07 02:13:26;;;;;;;1.70;0.68;;;20.20;99.90;;;20.59;100.00;100667.22;5166665;28;20050;-68
2022/09/07 02:16:04;;;;;;;1.02;0.73;;;20.20;99.90;;;20.55;100.00;100672.59;5166258;28;20050;-68
2022/09/07 02:18:42;;;;;;;2.53;0.75;;;20.10;99.90;;;20.48;100.00;100674.41;5165236;28;20054;-69
2022/09/07 02:21:19;;;;;;;1.35;0.70;;;20.10;99.90;;;20.38;100.00;100664.72;5166445;28;20121;-68
2022/09/07 02:24:00;;;;;;;2.15;0.80;;;20.00;99.90;;;20.37;100.00;100667.38;5166345;28;20042;-69
2022/09/07 02:26:37;;;;;;;1.10;0.80;;;20.10;99.90;;;20.36;100.00;100668.28;5166045;28;20073;-67
2022/09/07 02:29:09;;;;;;;1.85;0.88;;;20.00;99.90;;;20.31;100.00;100661.25;5166328;28;20054;-67
2022/09/07 02:31:43;;;;;;;0.98;0.70;;;20.00;99.90;;;20.29;100.00;100652.44;5166225;28;20049;-69
2022/09/07 02:34:15;;;;;;;1.08;0.70;;;19.90;99.90;;;20.30;100.00;100648.91;5166128;28;20080;-68
2022/09/07 02:36:50;;;;;;;1.25;0.80;;;19.90;99.90;;;20.27;100.00;100640.97;5165850;28;20134;-67
2022/09/07 02:39:22;;;;;;;2.63;0.80;;;19.90;99.90;;;20.27;100.00;100643.63;5166074;28;20077;-69
2022/09/07 02:41:54;;;;;;;0.93;0.60;;;19.90;99.90;;;20.28;100.00;100648.03;5165809;28;20053;-69
2022/09/07 02:44:30;;;;;;;0.75;0.60;;;19.90;99.90;;;20.29;100.00;100635.69;5166176;28;20538;-67
2022/09/07 02:47:21;;;;;;;1.45;0.82;;;19.90;99.90;;;20.30;100.00;100632.16;5165782;28;20129;-68
2022/09/07 02:50:21;;;;;;;1.58;0.80;;;19.90;99.90;;;20.27;100.00;100635.69;5166114;28;20046;-68
2022/09/07 02:53:10;;;;;;;2.47;1.02;;;19.90;99.90;;;20.21;100.00;100622.53;5165827;28;20512;-68
2022/09/07 02:55:56;;;;;;;3.33;1.15;;;19.80;99.90;;;20.21;100.00;100621.59;5165516;28;20081;-69
2022/09/07 02:58:35;;;;;;;1.80;1.05;;;19.80;99.90;;;20.20;100.00;100615.44;5165668;28;20042;-68
2022/09/07 03:01:16;;;;;;;2.22;1.15;;;19.80;99.90;;;20.20;100.00;100611.91;5165655;28;20129;-68
2022/09/07 03:04:05;;;;;;;2.95;1.30;;;19.80;99.90;;;20.20;100.00;100604.84;5164357;28;20054;-68
2022/09/07 03:06:41;;;;;;;2.17;0.98;;;19.80;99.90;;;20.19;100.00;100599.59;5165235;28;20085;-68
2022/09/07 03:09:18;;;;;;;1.40;1.00;;;19.80;99.90;;;20.19;100.00;100599.59;5165340;28;20062;-68
2022/09/07 03:11:51;;;;;;;2.53;1.33;;;19.80;99.90;;;20.17;100.00;100602.25;5165481;28;20069;-68
2022/09/07 03:14:25;;;;;;;2.33;1.23;;;19.80;99.90;;;20.14;100.00;100602.25;5165528;28;20052;-68
2022/09/07 03:16:58;;;;;;;2.15;1.35;;;19.70;99.90;;;20.12;100.00;100598.75;5165013;28;20046;-68
2022/09/07 03:19:31;;;;;;;2.28;1.35;;;19.70;99.90;;;20.10;100.00;100610.25;5164714;28;20105;-68
2022/09/07 03:22:04;;;;;;;2.60;1.23;;;19.70;99.90;;;20.09;100.00;100598.78;5165198;28;20074;-68
2022/09/07 03:24:36;;;;;;;1.65;0.90;;;19.70;99.90;;;20.06;100.00;100601.44;5165190;28;20038;-68
2022/09/07 03:27:10;;;;;;;1.85;1.10;;;19.60;99.90;;;20.00;100.00;100597.06;5164704;28;20050;-67
2022/09/07 03:29:42;;;;;;;1.98;1.10;;;19.60;99.90;;;20.00;100.00;100604.13;5165048;28;20444;-68
2022/09/07 03:32:14;;;;;;;1.35;1.13;;;19.50;99.90;;;19.97;100.00;100610.31;5164861;28;20498;-68
2022/09/07 03:34:48;;;;;;;1.45;1.00;;;19.50;99.90;;;19.95;100.00;100601.53;5163807;28;20150;-69
2022/09/07 03:37:20;;;;;;;0.98;0.82;;;19.50;99.90;;;19.95;100.00;100600.63;5164800;28;20046;-67
2022/09/07 03:39:52;;;;;;;1.60;0.95;;;19.50;99.90;;;19.92;100.00;100606.81;5165051;28;20078;-68
2022/09/07 03:42:24;;;;;;;2.30;1.05;;;19.50;99.90;;;19.90;100.00;100598.03;5164787;28;20122;-67
2022/09/07 03:44:57;;;;;;;1.70;1.15;;;19.50;99.90;;;19.87;100.00;100598.03;5164948;28;20101;-68
2022/09/07 03:47:29;;;;;;;1.40;0.80;;;19.40;99.90;;;19.86;100.00;100601.56;5163114;28;20042;-68
2022/09/07 03:50:04;;;;;;;1.63;0.88;;;19.40;99.90;;;19.83;100.00;100608.66;5165756;28;20128;-68
2022/09/07 03:52:36;;;;;;;2.05;0.88;;;19.40;99.90;;;19.79;100.00;100605.16;5165837;28;20672;-69
2022/09/07 03:55:09;;;;;;;1.35;0.77;;;19.40;99.90;;;19.75;100.00;100612.19;5165062;28;20042;-67
2022/09/07 03:57:42;;;;;;;1.92;1.10;;;19.30;99.90;;;19.71;100.00;100615.78;5164682;28;20133;-66
2022/09/07 04:00:15;;;;;;;1.20;1.02;;;19.30;99.90;;;19.66;100.00;100612.28;5165141;28;20042;-66
2022/09/07 04:02:47;;;;;;;0.90;0.85;;;19.20;99.90;;;19.62;100.00;100607.88;5165294;28;20045;-68
2022/09/07 04:05:20;;;;;;;2.15;1.08;;;19.20;99.90;;;19.61;100.00;100603.47;5163661;28;20046;-68
2022/09/07 04:07:53;;;;;;;2.55;1.00;;;19.20;99.90;;;19.60;100.00;100599.06;5165212;28;20117;-68
2022/09/07 04:10:25;;;;;;;2.72;1.25;;;19.20;99.90;;;19.58;100.00;100595.56;5164814;28;20384;-68
2022/09/07 04:12:57;;;;;;;1.90;1.35;;;19.10;99.90;;;19.56;100.00;100597.31;5164340;28;20038;-67
2022/09/07 04:15:29;;;;;;;2.15;1.20;;;19.10;99.90;;;19.56;100.00;100607.00;5164284;28;20125;-68
2022/09/07 04:18:02;;;;;;;1.60;1.27;;;19.10;99.90;;;19.57;100.00;100609.66;5163851;28;20120;-68
2022/09/07 04:20:37;;;;;;;2.85;1.60;;;19.10;99.90;;;19.55;100.00;100603.47;5324457;22;20132;-70
2022/09/07 04:23:09;;;;;;;1.85;1.20;;;19.10;99.90;;;19.54;100.00;100596.44;5245298;28;20068;-71
2022/09/07 04:25:48;;;;;;;3.70;1.30;;;19.10;99.90;;;19.53;100.00;100592.03;5246156;28;20052;-72
2022/09/07 04:28:21;;;;;;;3.03;1.40;;;19.10;99.90;;;19.53;100.00;100602.59;5246647;28;20043;-70
2022/09/07 04:30:53;;;;;;;1.35;1.02;;;19.10;99.90;;;19.53;100.00;100598.19;5264777;28;20080;-71
2022/09/07 04:33:26;;;;;;;3.25;1.15;;;19.10;99.90;;;19.54;100.00;100599.06;5265863;28;20048;-71
2022/09/07 04:36:02;;;;;;;1.52;1.10;;;19.10;99.90;;;19.51;100.00;100599.09;5266969;28;20040;-71
2022/09/07 04:38:34;;;;;;;1.70;1.10;;;19.10;99.90;;;19.50;100.00;100592.94;5267412;28;20087;-71
2022/09/07 04:41:09;;;;;;;3.22;1.40;;;19.10;99.90;;;19.49;100.00;100599.09;5266016;28;20261;-71
2022/09/07 04:43:43;;;;;;;1.88;1.20;;;19.10;99.90;;;19.49;100.00;100596.44;5267421;28;20068;-71
2022/09/07 04:46:21;;;;;;;3.13;1.30;;;19.10;99.90;;;19.47;100.00;100597.34;5266960;28;20044;-72
2022/09/07 04:48:55;;;;;;;2.58;1.33;;;19.10;99.90;;;19.46;100.00;100592.94;5267465;28;20046;-71
2022/09/07 04:51:31;;;;;;;1.52;1.30;;;19.10;99.90;;;19.45;100.00;100604.41;5267216;28;20093;-72
2022/09/07 04:54:05;;;;;;;2.53;1.20;;;19.10;99.90;;;19.44;100.00;100592.97;5267162;28;20094;-72
2022/09/07 04:56:37;;;;;;;2.13;1.30;;;19.00;99.90;;;19.41;100.00;100592.97;5265098;28;20154;-71
2022/09/07 04:59:09;;;;;;;2.95;1.55;;;19.00;99.90;;;19.39;100.00;100580.66;5264771;28;20151;-72
2022/09/07 05:01:41;;;;;;;3.20;1.40;;;19.00;99.90;;;19.36;100.00;100589.44;5266759;28;20068;-71
2022/09/07 05:04:13;;;;;;;2.78;1.48;;;19.00;99.90;;;19.34;100.00;100591.25;5267282;28;20040;-71
2022/09/07 05:06:47;;;;;;;2.78;1.38;;;18.90;99.90;;;19.33;100.00;100596.53;5265667;28;20143;-70
2022/09/07 05:09:19;;;;;;;4.15;1.70;;;18.90;99.90;;;19.33;100.00;100592.13;5266869;28;20097;-71
2022/09/07 05:11:51;;;;;;;3.13;1.48;;;18.90;99.90;;;19.32;100.00;100594.78;5266989;28;20051;-71
2022/09/07 05:14:24;;;;;;;3.50;1.60;;;18.90;99.90;;;19.32;100.00;100595.66;5265873;28;20138;-72
2022/09/07 05:16:56;;;;;;;2.45;1.60;;;18.90;99.90;;;19.34;100.00;100598.28;5266780;28;20089;-71
2022/09/07 05:19:29;;;;;;;3.15;1.85;;;18.90;99.90;;;19.34;100.00;100595.66;5266944;28;20523;-71
2022/09/07 05:22:02;;;;;;;2.83;1.50;;;18.90;99.90;;;19.37;100.00;100603.56;5265460;28;20105;-70
2022/09/07 05:24:35;;;;;;;2.90;1.50;;;18.90;99.90;;;19.38;100.00;100606.22;5267007;28;20097;-71
2022/09/07 05:27:08;;;;;;;2.95;1.70;;;19.00;99.90;;;19.39;100.00;100601.81;5265965;28;20051;-72
2022/09/07 05:29:40;;;;;;;3.15;1.60;;;19.00;99.90;;;19.40;100.00;100600.91;5265625;28;20510;-71
2022/09/07 05:32:12;;;;;;;3.55;2.10;;;19.00;99.90;;;19.41;100.00;100598.25;5266716;28;20032;-71
2022/09/07 05:34:44;;;;;;;2.92;1.83;;;19.00;99.90;;;19.43;100.00;100614.09;5266354;28;20131;-71
2022/09/07 05:37:18;;;;;;;3.42;1.83;;;19.00;99.90;;;19.46;100.00;100608.81;5264641;28;20091;-70
2022/09/07 05:39:53;;;;;;;3.95;2.20;;;19.10;99.90;;;19.47;100.00;100610.56;5265118;28;20052;-70
2022/09/07 05:42:26;;;;;;;3.22;2.03;;;19.10;99.90;;;19.48;100.00;100609.66;5265252;28;20495;-71
2022/09/07 05:44:58;;;;;;;4.88;2.00;;;19.10;99.90;;;19.52;100.00;100614.06;5269277;28;20048;-70
2022/09/07 05:47:31;;;;;;;2.60;1.85;;;19.10;99.90;;;19.61;100.00;100627.28;5268706;28;20044;-70
2022/09/07 05:50:03;;;;;;;6.20;3.00;;;19.20;99.90;;;19.71;100.00;100626.34;5270279;28;20055;-69
2022/09/07 05:52:37;;;;;;;6.82;3.58;;;19.30;99.90;;;19.73;100.00;100621.91;5270032;28;20120;-71
2022/09/07 05:55:10;;;;;;;8.38;4.20;;;19.30;99.90;;;19.68;100.00;100621.06;5268581;28;20134;-71
2022/09/07 05:57:44;;;;;;;9.75;4.15;;;19.30;99.90;;;19.67;100.00;100624.59;5268955;28;20051;-70
2022/09/07 06:00:17;;;;;;;10.93;4.13;;;19.30;99.90;;;19.73;100.00;100632.50;5268529;28;20545;-70
2022/09/07 06:02:49;;;;;;;10.05;4.40;;;19.40;99.90;;;19.83;100.00;100628.06;5269754;28;20040;-71
2022/09/07 06:05:21;;;;;;;7.32;4.25;;;19.50;99.90;;;19.91;100.00;100636.81;5269626;28;20075;-58
2022/09/07 06:07:55;;;;;;;6.45;3.75;;;19.50;99.90;;;20.00;100.00;100641.16;5269311;28;20068;-59
2022/09/07 06:10:30;;;;;;;7.38;3.88;;;19.60;99.90;;;20.12;100.00;100648.16;5269896;28;20501;-58
2022/09/07 06:13:02;;;;;;;7.72;4.65;;;19.70;99.90;;;20.13;100.00;100634.91;5269915;28;20116;-56
2022/09/07 06:15:34;;;;;;;9.30;5.03;;;19.70;99.90;;;20.11;100.00;100643.75;5269549;28;20040;-58
2022/09/07 06:18:06;;;;;;;8.63;4.93;;;19.70;99.90;;;20.06;100.00;100649.06;5268091;28;20052;-57
2022/09/07 06:20:39;;;;;;;9.20;5.22;;;19.70;99.90;;;20.01;100.00;100649.09;5269200;28;20508;-58
2022/09/07 06:23:12;;;;;;;7.95;4.53;;;19.70;99.90;;;20.02;100.00;100652.63;5269364;28;20130;-58
2022/09/07 06:25:48;;;;;;;8.73;4.60;;;19.70;99.90;;;20.04;100.00;100650.84;5269151;28;20054;-57
2022/09/07 06:28:21;;;;;;;8.18;4.40;;;19.70;99.90;;;20.08;100.00;100656.97;5269271;28;20044;-58
2022/09/07 06:30:53;;;;;;;8.63;4.95;;;19.70;99.90;;;20.27;100.00;100664.78;5269096;28;20048;-57
2022/09/07 06:33:25;;;;;;;8.13;4.50;;;19.90;99.90;;;20.67;100.00;100653.94;5269336;28;20044;-57
2022/09/07 06:35:59;;;;;;;10.02;4.75;;;20.10;99.90;;;21.16;100.00;100650.81;5268870;28;20067;-57
2022/09/07 06:38:35;;;;;;;9.40;5.10;;;20.50;99.90;;;21.66;100.00;100650.25;5269122;28;20142;-58
2022/09/07 06:41:10;;;;;;;11.85;5.20;;;21.00;99.90;;;22.21;100.00;100645.97;5268854;28;20050;-57
2022/09/07 06:43:43;;;;;;;8.63;4.07;;;21.50;99.90;;;22.64;100.00;100646.16;5268852;28;20040;-57
2022/09/07 06:46:16;;;;;;;7.82;4.65;;;21.90;99.90;;;23.18;100.00;100648.72;5268664;28;20044;-57
2022/09/07 06:48:48;;;;;;;6.45;3.95;;;22.40;99.90;;;23.61;100.00;100644.34;5269141;28;20090;-59
2022/09/07 06:51:25;;;;;;;7.25;3.67;;;22.80;99.90;;;24.08;100.00;100659.28;5268923;28;20068;-57
2022/09/07 06:54:00;;;;;;;6.57;3.55;;;23.20;99.90;;;24.41;100.00;100647.00;5268703;28;20131;-58
2022/09/07 06:56:32;;;;;;;5.50;3.20;;;23.60;99.90;;;24.51;100.00;100653.81;5268475;28;20048;-59
2022/09/07 06:59:05;;;;;;;5.85;3.10;;;23.80;99.90;;;24.30;100.00;100659.66;5268652;28;20089;-56
2022/09/07 07:01:37;;;;;;;6.43;2.67;;;23.70;99.90;;;24.04;100.00;100663.78;5268669;28;20136;-58
2022/09/07 07:04:09;;;;;;;4.18;2.65;;;23.50;99.90;;;23.77;100.00;100653.75;5268621;28;20047;-57
2022/09/07 07:06:41;;;;;;;4.88;2.80;;;23.30;99.90;;;23.49;100.00;100654.31;5268654;28;20097;-57
2022/09/07 07:09:15;;;;;;;3.92;2.40;;;23.10;99.90;;;23.29;100.00;100656.50;5268659;28;20446;-57
2022/09/07 07:11:47;;;;;;;3.47;2.42;;;22.90;99.90;;;23.02;100.00;100657.91;5268577;28;20093;-57
2022/09/07 07:14:20;;;;;;;4.47;2.40;;;22.70;99.90;;;22.82;100.00;100665.31;5268281;28;20052;-57
2022/09/07 07:16:52;;;;;;;4.15;2.28;;;22.40;99.90;;;22.74;100.00;100670.75;5268092;28;20055;-57
2022/09/07 07:19:24;;;;;;;2.97;2.10;;;22.30;99.90;;;22.72;100.00;100664.59;5269137;28;20085;-58
2022/09/07 07:21:56;;;;;;;4.03;2.30;;;22.30;99.90;;;22.71;100.00;100668.16;5269308;28;20132;-58
2022/09/07 07:24:30;;;;;;;6.15;2.55;;;22.20;99.90;;;22.70;100.00;100667.28;5269260;28;20036;-57
2022/09/07 07:27:02;;;;;;;4.80;2.58;;;22.20;99.90;;;22.70;100.00;100677.94;5268562;28;20082;-57
2022/09/07 07:29:34;;;;;;;4.85;2.60;;;22.20;99.90;;;22.74;100.00;100676.06;5269310;28;20040;-57
2022/09/07 07:32:06;;;;;;;3.28;2.03;;;22.20;99.90;;;22.75;100.00;100688.44;5268850;28;20047;-63
2022/09/07 07:34:39;;;;;;;3.15;2.00;;;22.20;99.90;;;22.83;100.00;100686.56;5268775;28;20506;-57
2022/09/07 07:37:11;;;;;;;3.53;1.95;;;22.20;99.90;;;23.09;100.00;100693.25;5268118;28;20040;-54
2022/09/07 07:39:44;;;;;;;5.72;2.47;;;22.40;99.90;;;23.42;100.00;100678.41;5268425;28;20500;-55
2022/09/07 07:42:17;;;;;;;4.13;2.65;;;22.70;99.90;;;23.83;100.00;100691.78;5268146;28;20063;-55
2022/09/07 07:44:49;;;;;;;3.50;2.28;;;23.00;99.90;;;24.28;100.00;100691.66;5268085;28;20044;-53
2022/09/07 07:47:21;;;;;;;4.30;2.55;;;23.30;99.90;;;24.72;100.00;100694.22;5268196;28;20077;-53
2022/09/07 07:49:54;;;;;;;3.95;2.20;;;23.80;99.90;;;25.13;100.00;100694.03;5268511;28;20340;-52
2022/09/07 07:52:33;;;;;;;3.28;1.85;;;24.10;99.90;;;25.51;100.00;100699.25;5267941;28;20067;-53
2022/09/07 07:55:08;;;;;;;3.60;2.10;;;24.50;99.90;;;25.70;100.00;100692.44;5267793;28;20074;-54
2022/09/07 07:57:40;;;;;;;3.25;2.03;;;24.70;99.90;;;25.95;100.00;100692.59;5268054;28;20115;-53
2022/09/07 08:00:14;;;;;;;3.08;1.60;;;25.00;99.90;;;26.14;100.00;100701.81;5267804;28;20060;-53
2022/09/07 08:02:46;;;;;;;3.53;1.83;;;25.20;99.90;;;26.56;99.98;100701.41;5267558;28;20039;-53
2022/09/07 08:05:18;;;;;;;3.15;1.85;;;25.50;99.90;;;26.85;97.48;100708.44;5267690;28;20070;-53
2022/09/07 08:07:50;;;;;;;2.92;1.60;;;25.80;99.20;;;27.23;96.14;100704.50;5266809;28;20083;-52
2022/09/07 08:10:28;;;;;;;1.95;1.20;;;26.00;98.90;;;27.65;93.48;100706.56;5268326;28;20059;-53
2022/09/07 08:13:00;;;;;;;1.73;1.10;;;26.30;98.20;;;28.04;89.59;100703.31;5267743;28;20097;-54
2022/09/07 08:15:44;;;;;;;1.67;1.15;;;26.60;97.10;;;28.46;88.71;100708.81;5267601;28;20381;-54
2022/09/07 08:18:17;;;;;;;1.67;1.17;;;26.80;96.60;;;29.01;87.01;100713.69;5267945;28;20165;-54
2022/09/07 08:20:49;;;;;;;1.65;1.20;;;27.20;96.30;;;29.60;84.07;100724.50;5267472;28;20071;-54
2022/09/07 08:23:21;;;;;;;2.25;1.00;;;27.50;95.40;;;30.10;80.74;100724.03;5267192;28;20131;-54
2022/09/07 08:25:57;;;;;;;2.35;1.00;;;27.80;94.20;;;30.45;79.55;100719.66;5267192;28;20040;-54
2022/09/07 08:28:32;;;;;;;1.80;1.05;;;28.00;93.50;;;30.91;79.01;100717.41;5267257;28;20044;-53
2022/09/07 08:31:05;;;;;;;1.17;1.05;;;28.20;93.40;;;31.17;78.12;100717.84;5267197;28;20499;-53
2022/09/07 08:33:38;;;;;;;1.73;1.10;;;28.40;92.80;;;31.55;75.49;100724.81;5267136;28;20044;-53
2022/09/07 08:36:13;;;;;;;1.92;1.10;;;28.70;91.70;;;31.55;75.14;100729.31;5267100;28;20058;-55
2022/09/07 08:38:47;;;;;;;2.30;1.00;;;28.90;91.00;;;31.49;74.46;100725.13;5267323;28;20477;-53
2022/09/07 08:41:42;;;;;;;1.48;0.93;;;29.00;90.20;;;31.45;75.04;100741.56;5267104;28;20386;-53
2022/09/07 08:44:22;;;;;;;1.05;0.95;;;29.10;90.00;;;31.66;75.08;100736.84;5266898;28;20044;-52
2022/09/07 08:46:59;;;;;;;1.85;0.85;;;29.30;90.10;;;31.55;73.81;100740.97;5265610;28;20048;-54
2022/09/07 08:49:42;;;;;;;1.13;0.80;;;29.30;87.70;;;30.90;75.52;100737.16;5267031;28;20520;-53
2022/09/07 08:52:20;;;;;;;1.30;0.80;;;29.00;87.90;;;30.55;77.59;100741.59;5267182;28;20542;-55
2022/09/07 08:55:01;;;;;;;1.48;0.80;;;28.70;89.00;;;30.08;79.06;100730.41;5267036;28;20040;-55
2022/09/07 08:57:42;;;;;;;2.50;1.00;;;28.50;90.00;;;29.27;80.56;100737.59;5267113;28;20399;-54
2022/09/07 09:00:17;;;;;;;1.55;0.95;;;28.00;90.00;;;29.09;81.54;100738.41;5265624;28;20048;-57
2022/09/07 09:02:50;;;;;;;1.70;0.82;;;27.70;90.70;;;29.04;81.99;100743.09;5267074;28;20300;-55
2022/09/07 09:05:32;;;;;;;1.67;1.05;;;27.60;91.00;;;29.12;83.33;100732.91;5266778;28;20048;-53
2022/09/07 09:08:22;;;;;;;1.63;1.00;;;27.60;91.60;;;29.50;81.99;100733.03;5266970;28;20047;-54
2022/09/07 09:11:02;;;;;;;2.45;0.95;;;27.90;91.30;;;29.69;80.88;100734.00;5266869;28;20047;-53
2022/09/07 09:13:53;;;;;;;1.90;0.93;;;28.20;90.50;;;29.55;80.69;100741.81;5266771;28;20050;-54
2022/09/07 09:16:34;;;;;;;2.90;1.00;;;28.30;90.20;;;29.44;81.56;100744.91;5266721;28;20055;-54
2022/09/07 09:19:26;;;;;;;1.88;1.00;;;28.30;90.10;;;29.27;80.79;100742.97;5270301;28;20056;-53
2022/09/07 09:22:09;;;;;;;2.47;0.90;;;28.20;89.60;;;29.28;82.96;100739.38;5271105;28;20047;-54
2022/09/07 09:24:47;;;;;;;1.70;1.08;;;28.20;90.30;;;29.38;82.26;100738.00;5270731;28;20051;-53
2022/09/07 09:27:19;;;;;;;2.33;1.10;;;28.30;90.30;;;29.50;82.60;100741.09;5270906;28;20598;-54
2022/09/07 09:29:52;;;;;;;0.98;0.75;;;28.40;90.30;;;29.49;82.18;100739.34;5270587;28;20055;-52
2022/09/07 09:32:38;;;;;;;1.45;1.00;;;28.40;90.10;;;29.46;82.82;100735.84;5270856;28;20051;-60
2022/09/07 09:35:19;;;;;;;1.05;0.95;;;28.40;90.30;;;29.36;82.35;100741.72;5270803;28;20527;-54
2022/09/07 09:37:51;;;;;;;2.13;0.93;;;28.30;90.00;;;29.34;82.27;100740.88;5270947;28;20074;-56
2022/09/07 09:40:26;;;;;;;1.95;0.73;;;28.30;89.80;;;29.32;82.31;100735.59;5270406;28;20074;-55
2022/09/07 09:43:02;;;;;;;1.30;1.10;;;28.30;90.00;;;29.24;83.50;100740.44;5270419;28;20052;-55
2022/09/07 09:45:42;;;;;;;1.00;0.80;;;28.20;90.30;;;29.20;83.29;100742.34;5270281;28;20043;-53
2022/09/07 09:48:25;;;;;;;1.65;0.90;;;28.20;90.30;;;29.23;82.12;100744.06;5270278;28;20048;-54
2022/09/07 09:50:59;;;;;;;1.00;0.95;;;28.20;90.00;;;29.27;82.90;100742.97;5270706;28;20044;-55
2022/09/07 09:53:35;;;;;;;1.73;1.10;;;28.20;90.00;;;29.32;81.14;100740.97;5270273;28;20048;-53
2022/09/07 09:56:08;;;;;;;2.15;1.02;;;28.20;89.00;;;29.34;81.29;100739.09;5270407;28;20071;-55
2022/09/07 09:58:44;;;;;;;2.80;0.90;;;28.20;88.60;;;29.35;81.89;100746.22;5270514;28;20048;-53
2022/09/07 10:01:26;;;;;;;1.10;1.00;;;28.30;89.10;;;29.37;80.40;100743.44;5270034;28;20515;-55
2022/09/07 10:03:58;;;;;;;2.00;1.05;;;28.30;88.10;;;29.41;79.32;100745.94;5269987;28;20046;-55
2022/09/07 10:06:31;;;;;;;3.25;1.10;;;28.30;86.90;;;29.42;80.16;100745.00;5269894;28;20040;-56
2022/09/07 10:09:03;;;;;;;2.00;0.90;;;28.30;87.50;;;29.49;81.40;100736.66;5269543;28;20043;-57
2022/09/07 10:11:44;;;;;;;1.02;0.90;;;28.40;88.40;;;29.55;81.17;100740.00;5270168;28;20932;-55
2022/09/07 10:14:20;;;;;;;1.73;1.00;;;28.40;88.80;;;29.66;79.62;100739.47;5269844;28;20050;-59
2022/09/07 10:16:53;;;;;;;1.77;1.00;;;28.50;87.40;;;29.78;80.30;100738.06;5269165;28;20052;-55
2022/09/07 10:19:34;;;;;;;1.33;0.93;;;28.60;87.50;;;29.73;79.80;100735.56;5269422;28;20063;-55
2022/09/07 10:22:24;;;;;;;1.85;1.13;;;28.60;86.80;;;29.60;78.36;100739.75;5269428;28;20389;-55
2022/09/07 10:24:56;;;;;;;2.33;1.10;;;28.50;85.70;;;29.50;80.08;100746.47;5269528;28;20516;-55
2022/09/07 10:27:35;;;;;;;2.20;1.00;;;28.40;86.50;;;29.57;80.42;100737.22;5269092;28;20051;-54
2022/09/07 10:30:16;;;;;;;2.72;1.30;;;28.50;87.20;;;29.63;80.03;100739.63;5268098;28;20413;-56
2022/09/07 10:33:01;;;;;;;1.63;1.40;;;28.50;86.60;;;29.66;79.76;100739.47;5269245;28;20407;-55
2022/09/07 10:35:37;;;;;;;2.88;1.40;;;28.50;86.50;;;29.72;79.33;100741.88;5269165;28;20040;-53
2022/09/07 10:38:17;;;;;;;2.85;1.75;;;28.60;86.20;;;29.79;78.63;100732.59;5268942;28;20032;-54
2022/09/07 10:40:58;;;;;;;2.42;2.03;;;28.60;85.80;;;29.79;79.92;100737.97;5269027;28;20414;-55
2022/09/07 10:43:42;;;;;;;4.03;2.33;;;28.70;86.30;;;29.82;79.43;100724.41;5268920;28;20047;-54